Ora Direzione Vento Velocita' Vento Media Vento Raffica Max. Temperatura Wind Chill Pioggia Pressione
20:39:01.0312 °(NW)30.8 Kts32.06 Kts41.16 Kts12.1 °C8.22 °C1.35 mm1002.7 Hpa
20:18:44.0329 °(NNW)36.54 Kts31.03 Kts39.76 Kts11.8 °C7.4 °C1.35 mm1004.7 Hpa
19:58:38.0336 °(NNW)29.4 Kts27.44 Kts38.22 Kts11.8 °C7.94 °C1.35 mm1001.9 Hpa
19:38:29.0325 °(NW)32.76 Kts31.59 Kts38.22 Kts11.1 °C6.71 °C1.35 mm1003.7 Hpa
19:18:35.0329 °(NNW)31.22 Kts30.8 Kts32.9 Kts11.5 °C7.4 °C1.35 mm1002.9 Hpa
18:58:49.0313 °(NW)20.86 Kts21.0 Kts28.98 Kts11.5 °C8.15 °C1.35 mm1003.7 Hpa
18:38:31.0319 °(NW)26.6 Kts26.32 Kts28.56 Kts11.3 °C7.4 °C1.35 mm1003.7 Hpa
18:18:56.0313 °(NW)14.56 Kts15.72 Kts28.28 Kts10.8 °C7.92 °C1.35 mm1002.4 Hpa
17:58:21.0310 °(NW)18.06 Kts17.45 Kts28.28 Kts10.8 °C7.43 °C1.35 mm1002.2 Hpa
17:38:59.0321 °(NW)19.04 Kts17.54 Kts28.28 Kts11.0 °C7.69 °C1.35 mm1002.7 Hpa
17:18:36.0336 °(NNW)20.86 Kts16.66 Kts28.28 Kts11.3 °C7.88 °C1.35 mm1002.4 Hpa
16:58:58.0330 °(NNW)18.76 Kts16.19 Kts28.28 Kts11.3 °C8.09 °C1.35 mm1002.9 Hpa
16:38:55.0302 °(WNW)13.3 Kts14.88 Kts28.28 Kts11.1 °C8.45 °C1.35 mm1001.7 Hpa
16:18:01.0325 °(NW)11.76 Kts14.18 Kts28.28 Kts10.6 °C8.02 °C1.35 mm1002.2 Hpa
15:58:58.0346 °(NNW)12.74 Kts12.97 Kts28.28 Kts11.0 °C8.46 °C1.35 mm1004.5 Hpa
15:38:04.0325 °(NW)13.16 Kts18.76 Kts28.28 Kts11.1 °C8.45 °C1.35 mm1002.4 Hpa
15:18:42.0313 °(NW)12.88 Kts12.64 Kts28.28 Kts11.1 °C8.59 °C1.08 mm1003.2 Hpa
14:58:41.0318 °(NW)17.36 Kts16.52 Kts28.28 Kts11.3 °C8.22 °C1.08 mm1001.9 Hpa
14:38:49.0347 °(NNW)17.78 Kts18.71 Kts28.28 Kts11.6 °C8.61 °C1.08 mm1003.9 Hpa
14:18:46.0327 °(NNW)11.9 Kts10.12 Kts28.28 Kts12.5 °C10.43 °C0.81 mm1002.0 Hpa